sensor_id;sensor_type;location;lat;lon;timestamp;pressure;altitude;pressure_sealevel;temperature;humidity
58092;BME280;43896;48.178;11.578;2023-09-18T00:01:59;95521.22;;;20.73;68.29
58092;BME280;43896;48.178;11.578;2023-09-18T00:04:24;95491.38;;;20.34;69.10
58092;BME280;43896;48.178;11.578;2023-09-18T00:06:49;95507.84;;;20.00;70.68
58092;BME280;43896;48.178;11.578;2023-09-18T00:09:14;95511.28;;;19.89;70.78
58092;BME280;43896;48.178;11.578;2023-09-18T00:11:40;95507.22;;;19.49;72.24
58092;BME280;43896;48.178;11.578;2023-09-18T00:14:05;95503.94;;;19.29;72.76
58092;BME280;43896;48.178;11.578;2023-09-18T00:16:31;95503.00;;;19.17;73.01
58092;BME280;43896;48.178;11.578;2023-09-18T00:18:57;95501.09;;;19.42;72.26
58092;BME280;43896;48.178;11.578;2023-09-18T00:21:22;95501.53;;;20.25;69.35
58092;BME280;43896;48.178;11.578;2023-09-18T00:23:50;95501.81;;;20.66;67.16
58092;BME280;43896;48.178;11.578;2023-09-18T00:26:15;95498.59;;;20.75;67.18
58092;BME280;43896;48.178;11.578;2023-09-18T00:28:41;95492.75;;;20.67;67.24
58092;BME280;43896;48.178;11.578;2023-09-18T00:31:06;95483.56;;;20.63;67.29
58092;BME280;43896;48.178;11.578;2023-09-18T00:33:31;95490.31;;;20.35;67.59
58092;BME280;43896;48.178;11.578;2023-09-18T00:35:56;95473.13;;;19.70;69.53
58092;BME280;43896;48.178;11.578;2023-09-18T00:38:22;95470.31;;;19.46;71.03
58092;BME280;43896;48.178;11.578;2023-09-18T00:40:47;95471.84;;;19.36;71.10
58092;BME280;43896;48.178;11.578;2023-09-18T00:43:12;95470.53;;;19.45;71.21
58092;BME280;43896;48.178;11.578;2023-09-18T00:45:44;95460.34;;;19.17;71.98
58092;BME280;43896;48.178;11.578;2023-09-18T00:48:10;95455.63;;;19.37;70.93
58092;BME280;43896;48.178;11.578;2023-09-18T00:50:36;95457.28;;;20.05;68.89
58092;BME280;43896;48.178;11.578;2023-09-18T00:53:02;95456.34;;;19.63;69.30
58092;BME280;43896;48.178;11.578;2023-09-18T00:55:27;95460.22;;;19.11;71.22
58092;BME280;43896;48.178;11.578;2023-09-18T00:57:54;95442.16;;;19.51;69.55
58092;BME280;43896;48.178;11.578;2023-09-18T01:00:20;95451.13;;;20.05;68.09
58092;BME280;43896;48.178;11.578;2023-09-18T01:02:45;95448.19;;;19.95;68.53
58092;BME280;43896;48.178;11.578;2023-09-18T01:05:10;95444.06;;;19.06;71.22
58092;BME280;43896;48.178;11.578;2023-09-18T01:07:35;95441.44;;;18.81;72.20
58092;BME280;43896;48.178;11.578;2023-09-18T01:10:01;95431.84;;;19.36;70.71
58092;BME280;43896;48.178;11.578;2023-09-18T01:12:30;95430.03;;;19.85;68.87
58092;BME280;43896;48.178;11.578;2023-09-18T01:17:23;95438.44;;;20.31;66.48
58092;BME280;43896;48.178;11.578;2023-09-18T01:19:49;95437.19;;;20.03;67.55
58092;BME280;43896;48.178;11.578;2023-09-18T01:22:15;95428.38;;;20.14;67.00
58092;BME280;43896;48.178;11.578;2023-09-18T01:24:41;95431.13;;;20.38;65.74
58092;BME280;43896;48.178;11.578;2023-09-18T01:27:08;95437.63;;;20.42;65.01
58092;BME280;43896;48.178;11.578;2023-09-18T01:29:34;95442.09;;;20.18;65.91
58092;BME280;43896;48.178;11.578;2023-09-18T01:31:59;95434.72;;;19.71;67.78
58092;BME280;43896;48.178;11.578;2023-09-18T01:34:25;95433.28;;;20.17;66.43
58092;BME280;43896;48.178;11.578;2023-09-18T01:36:51;95441.22;;;20.36;66.17
58092;BME280;43896;48.178;11.578;2023-09-18T01:39:17;95446.56;;;20.36;65.80
58092;BME280;43896;48.178;11.578;2023-09-18T01:41:43;95442.47;;;20.33;66.33
58092;BME280;43896;48.178;11.578;2023-09-18T01:44:08;95443.75;;;20.31;65.72
58092;BME280;43896;48.178;11.578;2023-09-18T01:46:33;95438.88;;;20.28;65.44
58092;BME280;43896;48.178;11.578;2023-09-18T01:49:02;95423.88;;;20.15;66.05
58092;BME280;43896;48.178;11.578;2023-09-18T01:51:28;95415.03;;;19.35;68.72
58092;BME280;43896;48.178;11.578;2023-09-18T01:53:55;95410.91;;;19.39;68.94
58092;BME280;43896;48.178;11.578;2023-09-18T01:56:21;95406.16;;;19.90;66.56
58092;BME280;43896;48.178;11.578;2023-09-18T01:58:46;95405.16;;;20.03;65.83
58092;BME280;43896;48.178;11.578;2023-09-18T02:01:12;95394.34;;;19.98;66.03
58092;BME280;43896;48.178;11.578;2023-09-18T02:03:37;95391.09;;;20.08;65.87
58092;BME280;43896;48.178;11.578;2023-09-18T02:06:07;95398.22;;;20.14;65.50
58092;BME280;43896;48.178;11.578;2023-09-18T02:08:32;95403.56;;;20.14;64.81
58092;BME280;43896;48.178;11.578;2023-09-18T02:10:57;95394.63;;;20.20;64.09
58092;BME280;43896;48.178;11.578;2023-09-18T02:13:22;95394.88;;;20.18;62.92
58092;BME280;43896;48.178;11.578;2023-09-18T02:15:48;95394.94;;;20.00;64.92
58092;BME280;43896;48.178;11.578;2023-09-18T02:18:13;95392.28;;;19.51;65.81
58092;BME280;43896;48.178;11.578;2023-09-18T02:20:40;95387.03;;;19.93;65.55
58092;BME280;43896;48.178;11.578;2023-09-18T02:23:06;95385.41;;;20.04;64.44
58092;BME280;43896;48.178;11.578;2023-09-18T02:25:31;95393.66;;;20.02;65.06
58092;BME280;43896;48.178;11.578;2023-09-18T02:27:57;95389.72;;;20.05;64.79
58092;BME280;43896;48.178;11.578;2023-09-18T02:30:22;95388.75;;;19.88;65.32
58092;BME280;43896;48.178;11.578;2023-09-18T02:32:47;95388.31;;;20.02;65.31
58092;BME280;43896;48.178;11.578;2023-09-18T02:35:12;95391.34;;;20.06;64.92
58092;BME280;43896;48.178;11.578;2023-09-18T02:37:38;95392.31;;;19.81;64.65
58092;BME280;43896;48.178;11.578;2023-09-18T02:40:03;95387.50;;;19.04;67.84
58092;BME280;43896;48.178;11.578;2023-09-18T02:42:30;95379.00;;;18.96;68.33
58092;BME280;43896;48.178;11.578;2023-09-18T02:44:55;95370.06;;;19.08;67.94
58092;BME280;43896;48.178;11.578;2023-09-18T02:47:20;95374.91;;;19.30;67.31
58092;BME280;43896;48.178;11.578;2023-09-18T02:49:46;95376.31;;;19.63;65.62
58092;BME280;43896;48.178;11.578;2023-09-18T02:52:11;95360.00;;;19.71;65.38
58092;BME280;43896;48.178;11.578;2023-09-18T02:54:36;95362.06;;;19.08;68.25
58092;BME280;43896;48.178;11.578;2023-09-18T02:57:01;95354.94;;;19.21;67.17
58092;BME280;43896;48.178;11.578;2023-09-18T02:59:27;95355.41;;;19.48;66.36
58092;BME280;43896;48.178;11.578;2023-09-18T03:01:52;95357.06;;;19.61;65.94
58092;BME280;43896;48.178;11.578;2023-09-18T03:04:17;95364.97;;;19.67;65.96
58092;BME280;43896;48.178;11.578;2023-09-18T03:06:43;95360.53;;;19.61;65.90
58092;BME280;43896;48.178;11.578;2023-09-18T03:09:08;95355.34;;;19.66;66.09
58092;BME280;43896;48.178;11.578;2023-09-18T03:11:33;95360.53;;;19.61;65.76
58092;BME280;43896;48.178;11.578;2023-09-18T03:13:59;95350.25;;;19.65;65.03
58092;BME280;43896;48.178;11.578;2023-09-18T03:16:24;95360.66;;;19.55;64.89
58092;BME280;43896;48.178;11.578;2023-09-18T03:18:49;95353.34;;;19.32;65.98
58092;BME280;43896;48.178;11.578;2023-09-18T03:21:14;95345.69;;;19.05;67.26
58092;BME280;43896;48.178;11.578;2023-09-18T03:23:40;95343.25;;;18.85;68.04
58092;BME280;43896;48.178;11.578;2023-09-18T03:26:05;95339.53;;;19.23;66.35
58092;BME280;43896;48.178;11.578;2023-09-18T03:28:30;95338.06;;;19.39;65.34
58092;BME280;43896;48.178;11.578;2023-09-18T03:30:57;95338.56;;;19.47;65.96
58092;BME280;43896;48.178;11.578;2023-09-18T03:33:23;95330.03;;;18.71;67.13
58092;BME280;43896;48.178;11.578;2023-09-18T03:35:48;95328.19;;;18.72;68.34
58092;BME280;43896;48.178;11.578;2023-09-18T03:38:14;95324.25;;;19.00;67.73
58092;BME280;43896;48.178;11.578;2023-09-18T03:40:39;95317.31;;;19.29;66.85
58092;BME280;43896;48.178;11.578;2023-09-18T03:43:04;95317.44;;;19.34;66.34
58092;BME280;43896;48.178;11.578;2023-09-18T03:45:30;95320.25;;;19.39;65.46
58092;BME280;43896;48.178;11.578;2023-09-18T03:47:55;95317.66;;;19.33;66.03
58092;BME280;43896;48.178;11.578;2023-09-18T03:50:20;95303.88;;;19.05;66.36
58092;BME280;43896;48.178;11.578;2023-09-18T03:52:46;95308.00;;;18.64;68.21
58092;BME280;43896;48.178;11.578;2023-09-18T03:55:11;95300.72;;;18.34;69.34
58092;BME280;43896;48.178;11.578;2023-09-18T03:57:39;95295.59;;;18.95;67.05
58092;BME280;43896;48.178;11.578;2023-09-18T04:00:04;95294.28;;;19.16;66.79
58092;BME280;43896;48.178;11.578;2023-09-18T04:02:30;95293.53;;;19.27;66.64
58092;BME280;43896;48.178;11.578;2023-09-18T04:04:55;95293.91;;;19.31;66.35
58092;BME280;43896;48.178;11.578;2023-09-18T04:07:20;95294.25;;;19.35;66.03
58092;BME280;43896;48.178;11.578;2023-09-18T04:09:46;95294.13;;;18.37;68.89
58092;BME280;43896;48.178;11.578;2023-09-18T04:12:11;95285.38;;;18.92;66.92
58092;BME280;43896;48.178;11.578;2023-09-18T04:14:36;95286.31;;;18.98;66.52
58092;BME280;43896;48.178;11.578;2023-09-18T04:17:02;95289.13;;;19.03;66.48
58092;BME280;43896;48.178;11.578;2023-09-18T04:19:27;95286.69;;;18.64;68.09
58092;BME280;43896;48.178;11.578;2023-09-18T04:21:52;95275.44;;;18.62;67.86
58092;BME280;43896;48.178;11.578;2023-09-18T04:24:18;95268.78;;;18.71;68.07
58092;BME280;43896;48.178;11.578;2023-09-18T04:26:43;95266.13;;;18.53;68.12
58092;BME280;43896;48.178;11.578;2023-09-18T04:29:08;95263.75;;;18.82;66.86
58092;BME280;43896;48.178;11.578;2023-09-18T04:31:34;95265.34;;;19.01;66.37
58092;BME280;43896;48.178;11.578;2023-09-18T04:33:59;95266.34;;;19.07;66.03
58092;BME280;43896;48.178;11.578;2023-09-18T04:36:24;95271.88;;;19.05;66.07
58092;BME280;43896;48.178;11.578;2023-09-18T04:38:50;95264.91;;;19.04;66.46
58092;BME280;43896;48.178;11.578;2023-09-18T04:41:15;95269.66;;;19.02;65.95
58092;BME280;43896;48.178;11.578;2023-09-18T04:43:41;95261.06;;;18.82;66.39
58092;BME280;43896;48.178;11.578;2023-09-18T04:46:07;95260.06;;;18.83;67.02
58092;BME280;43896;48.178;11.578;2023-09-18T04:48:33;95267.91;;;18.78;67.15
58092;BME280;43896;48.178;11.578;2023-09-18T04:50:58;95270.50;;;18.84;66.49
58092;BME280;43896;48.178;11.578;2023-09-18T04:53:24;95273.69;;;18.93;66.47
58092;BME280;43896;48.178;11.578;2023-09-18T04:55:49;95269.31;;;18.99;66.25
58092;BME280;43896;48.178;11.578;2023-09-18T04:58:15;95274.19;;;19.02;65.96
58092;BME280;43896;48.178;11.578;2023-09-18T05:00:40;95275.00;;;19.02;65.68
58092;BME280;43896;48.178;11.578;2023-09-18T05:03:06;95279.06;;;19.05;65.54
58092;BME280;43896;48.178;11.578;2023-09-18T05:05:33;95273.50;;;19.06;65.54
58092;BME280;43896;48.178;11.578;2023-09-18T05:07:58;95282.69;;;19.10;65.75
58092;BME280;43896;48.178;11.578;2023-09-18T05:10:23;95279.56;;;19.14;65.80
58092;BME280;43896;48.178;11.578;2023-09-18T05:12:49;95285.34;;;19.10;65.75
58092;BME280;43896;48.178;11.578;2023-09-18T05:15:15;95283.72;;;17.92;69.68
58092;BME280;43896;48.178;11.578;2023-09-18T05:17:47;95283.66;;;18.42;68.56
58092;BME280;43896;48.178;11.578;2023-09-18T05:20:17;95289.44;;;18.76;66.66
58092;BME280;43896;48.178;11.578;2023-09-18T05:22:42;95289.75;;;18.86;66.74
58092;BME280;43896;48.178;11.578;2023-09-18T05:25:08;95282.84;;;18.97;66.09
58092;BME280;43896;48.178;11.578;2023-09-18T05:27:35;95287.16;;;18.98;66.87
58092;BME280;43896;48.178;11.578;2023-09-18T05:30:00;95288.00;;;19.10;67.05
58092;BME280;43896;48.178;11.578;2023-09-18T05:32:25;95290.53;;;18.50;68.93
58092;BME280;43896;48.178;11.578;2023-09-18T05:34:50;95293.00;;;18.88;67.53
58092;BME280;43896;48.178;11.578;2023-09-18T05:37:15;95292.97;;;19.07;67.46
58092;BME280;43896;48.178;11.578;2023-09-18T05:39:41;95291.03;;;18.77;68.53
58092;BME280;43896;48.178;11.578;2023-09-18T05:42:06;95296.53;;;19.01;68.27
58092;BME280;43896;48.178;11.578;2023-09-18T05:44:31;95289.31;;;19.20;67.19
58092;BME280;43896;48.178;11.578;2023-09-18T05:46:56;95295.28;;;19.34;66.74
58092;BME280;43896;48.178;11.578;2023-09-18T05:49:22;95297.28;;;19.38;66.78
58092;BME280;43896;48.178;11.578;2023-09-18T05:51:47;95297.41;;;19.43;67.00
58092;BME280;43896;48.178;11.578;2023-09-18T05:54:13;95284.91;;;18.77;69.90
58092;BME280;43896;48.178;11.578;2023-09-18T05:56:39;95279.59;;;18.40;71.49
58092;BME280;43896;48.178;11.578;2023-09-18T05:59:04;95271.66;;;18.51;70.83
58092;BME280;43896;48.178;11.578;2023-09-18T06:01:30;95264.78;;;19.29;68.75
58092;BME280;43896;48.178;11.578;2023-09-18T06:03:56;95256.53;;;19.73;67.76
58092;BME280;43896;48.178;11.578;2023-09-18T06:06:21;95260.41;;;20.01;67.06
58092;BME280;43896;48.178;11.578;2023-09-18T06:08:46;95266.09;;;20.16;66.27
58092;BME280;43896;48.178;11.578;2023-09-18T06:11:11;95276.69;;;20.23;64.25
58092;BME280;43896;48.178;11.578;2023-09-18T06:13:37;95283.53;;;20.31;62.73
58092;BME280;43896;48.178;11.578;2023-09-18T06:16:02;95284.69;;;20.35;61.61
58092;BME280;43896;48.178;11.578;2023-09-18T06:18:32;95283.78;;;20.41;63.72
58092;BME280;43896;48.178;11.578;2023-09-18T06:20:57;95282.94;;;20.52;63.27
58092;BME280;43896;48.178;11.578;2023-09-18T06:23:22;95272.59;;;20.68;64.59
58092;BME280;43896;48.178;11.578;2023-09-18T06:25:48;95275.38;;;20.73;63.74
58092;BME280;43896;48.178;11.578;2023-09-18T06:28:20;95287.47;;;20.75;64.32
58092;BME280;43896;48.178;11.578;2023-09-18T06:30:45;95280.81;;;20.90;62.36
58092;BME280;43896;48.178;11.578;2023-09-18T06:33:10;95276.84;;;20.92;62.77
58092;BME280;43896;48.178;11.578;2023-09-18T06:35:37;95272.84;;;21.07;62.10
58092;BME280;43896;48.178;11.578;2023-09-18T06:38:03;95282.97;;;21.05;62.58
58092;BME280;43896;48.178;11.578;2023-09-18T06:40:30;95294.34;;;21.12;62.12
58092;BME280;43896;48.178;11.578;2023-09-18T06:42:59;95288.72;;;21.25;61.52
58092;BME280;43896;48.178;11.578;2023-09-18T06:45:25;95289.56;;;21.43;62.49
58092;BME280;43896;48.178;11.578;2023-09-18T06:47:50;95290.69;;;21.59;60.90
58092;BME280;43896;48.178;11.578;2023-09-18T06:50:15;95288.09;;;21.81;59.60
58092;BME280;43896;48.178;11.578;2023-09-18T06:52:40;95284.97;;;22.01;58.19
58092;BME280;43896;48.178;11.578;2023-09-18T06:55:06;95295.16;;;22.21;59.05
58092;BME280;43896;48.178;11.578;2023-09-18T06:57:31;95309.91;;;22.35;59.33
58092;BME280;43896;48.178;11.578;2023-09-18T06:59:56;95318.88;;;22.46;58.83
58092;BME280;43896;48.178;11.578;2023-09-18T07:02:21;95335.09;;;22.22;58.57
58092;BME280;43896;48.178;11.578;2023-09-18T07:04:47;95327.22;;;22.16;58.78
58092;BME280;43896;48.178;11.578;2023-09-18T07:07:12;95335.53;;;22.31;58.07
58092;BME280;43896;48.178;11.578;2023-09-18T07:09:38;95337.41;;;22.31;57.94
58092;BME280;43896;48.178;11.578;2023-09-18T07:12:03;95339.66;;;22.22;59.01
58092;BME280;43896;48.178;11.578;2023-09-18T07:14:28;95343.13;;;22.22;58.73
58092;BME280;43896;48.178;11.578;2023-09-18T07:16:54;95362.25;;;22.43;58.82
58092;BME280;43896;48.178;11.578;2023-09-18T07:19:19;95377.44;;;22.37;59.08
58092;BME280;43896;48.178;11.578;2023-09-18T07:21:44;95371.69;;;22.84;56.87
58092;BME280;43896;48.178;11.578;2023-09-18T07:24:10;95372.56;;;23.07;55.61
58092;BME280;43896;48.178;11.578;2023-09-18T07:26:41;95369.38;;;23.10;56.87
58092;BME280;43896;48.178;11.578;2023-09-18T07:29:06;95378.63;;;23.42;55.58
58092;BME280;43896;48.178;11.578;2023-09-18T07:31:31;95378.88;;;23.40;55.74
58092;BME280;43896;48.178;11.578;2023-09-18T07:33:56;95379.56;;;23.08;56.61
58092;BME280;43896;48.178;11.578;2023-09-18T07:36:21;95373.78;;;22.99;56.90
58092;BME280;43896;48.178;11.578;2023-09-18T07:38:47;95371.34;;;22.98;57.96
58092;BME280;43896;48.178;11.578;2023-09-18T07:41:12;95372.06;;;23.32;56.71
58092;BME280;43896;48.178;11.578;2023-09-18T07:43:40;95365.47;;;23.40;56.25
58092;BME280;43896;48.178;11.578;2023-09-18T07:46:06;95363.50;;;23.57;56.53
58092;BME280;43896;48.178;11.578;2023-09-18T07:48:32;95360.28;;;23.55;55.90
58092;BME280;43896;48.178;11.578;2023-09-18T07:50:57;95365.66;;;23.33;57.46
58092;BME280;43896;48.178;11.578;2023-09-18T07:53:22;95361.66;;;23.36;57.42
58092;BME280;43896;48.178;11.578;2023-09-18T07:55:48;95361.31;;;23.54;56.83
58092;BME280;43896;48.178;11.578;2023-09-18T07:58:13;95366.00;;;23.64;55.82
58092;BME280;43896;48.178;11.578;2023-09-18T08:00:39;95367.84;;;23.86;55.72
58092;BME280;43896;48.178;11.578;2023-09-18T08:03:04;95382.16;;;23.91;55.74
58092;BME280;43896;48.178;11.578;2023-09-18T08:05:29;95390.66;;;23.83;55.32
58092;BME280;43896;48.178;11.578;2023-09-18T08:07:56;95401.41;;;23.83;55.86
58092;BME280;43896;48.178;11.578;2023-09-18T08:10:22;95409.06;;;23.74;55.17
58092;BME280;43896;48.178;11.578;2023-09-18T08:12:47;95407.75;;;23.77;56.39
58092;BME280;43896;48.178;11.578;2023-09-18T08:15:13;95411.56;;;24.08;56.32
58092;BME280;43896;48.178;11.578;2023-09-18T08:17:39;95408.72;;;24.20;55.76
58092;BME280;43896;48.178;11.578;2023-09-18T08:20:05;95404.84;;;24.33;56.39
58092;BME280;43896;48.178;11.578;2023-09-18T08:22:37;95394.66;;;24.08;55.30
58092;BME280;43896;48.178;11.578;2023-09-18T08:25:02;95404.75;;;23.95;55.48
58092;BME280;43896;48.178;11.578;2023-09-18T08:27:27;95402.81;;;23.69;55.97
58092;BME280;43896;48.178;11.578;2023-09-18T08:29:54;95418.56;;;23.60;57.05
58092;BME280;43896;48.178;11.578;2023-09-18T08:32:19;95421.69;;;23.52;57.39
58092;BME280;43896;48.178;11.578;2023-09-18T08:34:44;95418.56;;;23.60;57.37
58092;BME280;43896;48.178;11.578;2023-09-18T08:37:09;95420.63;;;23.53;57.12
58092;BME280;43896;48.178;11.578;2023-09-18T08:39:34;95424.69;;;23.55;57.88
58092;BME280;43896;48.178;11.578;2023-09-18T08:42:05;95424.44;;;23.57;57.33
58092;BME280;43896;48.178;11.578;2023-09-18T08:44:32;95423.88;;;23.55;57.35
58092;BME280;43896;48.178;11.578;2023-09-18T08:46:57;95433.00;;;23.54;57.84
58092;BME280;43896;48.178;11.578;2023-09-18T08:49:23;95443.84;;;23.42;57.98
58092;BME280;43896;48.178;11.578;2023-09-18T08:51:49;95445.13;;;23.39;58.17
58092;BME280;43896;48.178;11.578;2023-09-18T08:54:14;95437.41;;;23.43;58.45
58092;BME280;43896;48.178;11.578;2023-09-18T08:56:40;95450.94;;;23.53;58.26
58092;BME280;43896;48.178;11.578;2023-09-18T08:59:05;95441.72;;;23.44;58.08
58092;BME280;43896;48.178;11.578;2023-09-18T09:01:30;95452.03;;;23.52;57.92
58092;BME280;43896;48.178;11.578;2023-09-18T09:03:56;95445.59;;;23.31;58.13
58092;BME280;43896;48.178;11.578;2023-09-18T09:06:21;95453.69;;;23.14;59.00
58092;BME280;43896;48.178;11.578;2023-09-18T09:08:46;95463.41;;;23.20;58.19
58092;BME280;43896;48.178;11.578;2023-09-18T09:11:11;95462.13;;;23.23;59.00
58092;BME280;43896;48.178;11.578;2023-09-18T09:13:37;95474.97;;;23.21;58.68
58092;BME280;43896;48.178;11.578;2023-09-18T09:16:02;95480.34;;;23.21;59.21
58092;BME280;43896;48.178;11.578;2023-09-18T09:18:28;95479.94;;;23.12;58.96
58092;BME280;43896;48.178;11.578;2023-09-18T09:20:54;95466.84;;;23.16;58.83
58092;BME280;43896;48.178;11.578;2023-09-18T09:23:23;95455.81;;;23.12;59.09
58092;BME280;43896;48.178;11.578;2023-09-18T09:25:48;95458.22;;;23.14;59.27
58092;BME280;43896;48.178;11.578;2023-09-18T09:28:13;95452.78;;;23.09;59.21
58092;BME280;43896;48.178;11.578;2023-09-18T09:30:39;95458.72;;;22.94;59.77
58092;BME280;43896;48.178;11.578;2023-09-18T09:33:05;95460.31;;;22.95;60.19
58092;BME280;43896;48.178;11.578;2023-09-18T09:35:31;95460.41;;;23.00;60.27
58092;BME280;43896;48.178;11.578;2023-09-18T09:38:08;95458.03;;;23.03;60.48
58092;BME280;43896;48.178;11.578;2023-09-18T09:40:34;95450.91;;;23.09;59.95
58092;BME280;43896;48.178;11.578;2023-09-18T09:43:00;95451.06;;;23.19;59.35
58092;BME280;43896;48.178;11.578;2023-09-18T09:45:26;95466.91;;;23.21;59.13
58092;BME280;43896;48.178;11.578;2023-09-18T09:47:53;95464.41;;;23.14;60.17
58092;BME280;43896;48.178;11.578;2023-09-18T09:50:19;95473.16;;;23.27;58.92
58092;BME280;43896;48.178;11.578;2023-09-18T09:52:48;95476.97;;;23.31;58.36
58092;BME280;43896;48.178;11.578;2023-09-18T09:55:22;95487.38;;;23.27;58.21
58092;BME280;43896;48.178;11.578;2023-09-18T09:57:48;95479.97;;;23.34;58.02
58092;BME280;43896;48.178;11.578;2023-09-18T10:00:14;95485.31;;;23.34;58.11
58092;BME280;43896;48.178;11.578;2023-09-18T10:02:54;95490.94;;;23.33;57.74
58092;BME280;43896;48.178;11.578;2023-09-18T10:05:21;95490.63;;;23.29;57.81
58092;BME280;43896;48.178;11.578;2023-09-18T10:07:47;95492.19;;;23.25;58.15
58092;BME280;43896;48.178;11.578;2023-09-18T10:10:12;95500.06;;;23.32;57.84
58092;BME280;43896;48.178;11.578;2023-09-18T10:12:38;95486.72;;;23.37;57.35
58092;BME280;43896;48.178;11.578;2023-09-18T10:15:04;95495.16;;;23.46;57.16
58092;BME280;43896;48.178;11.578;2023-09-18T10:17:30;95488.47;;;23.48;56.69
58092;BME280;43896;48.178;11.578;2023-09-18T10:22:37;95493.16;;;23.58;57.20
58092;BME280;43896;48.178;11.578;2023-09-18T10:25:23;95491.56;;;23.57;57.12
58092;BME280;43896;48.178;11.578;2023-09-18T10:27:50;95488.59;;;23.36;57.38
58092;BME280;43896;48.178;11.578;2023-09-18T10:30:19;95494.19;;;23.52;57.32
58092;BME280;43896;48.178;11.578;2023-09-18T10:32:45;95483.50;;;23.57;56.66
58092;BME280;43896;48.178;11.578;2023-09-18T10:35:11;95491.56;;;23.57;56.07
58092;BME280;43896;48.178;11.578;2023-09-18T10:37:37;95488.53;;;23.53;56.09
58092;BME280;43896;48.178;11.578;2023-09-18T10:40:03;95500.91;;;23.54;55.81
58092;BME280;43896;48.178;11.578;2023-09-18T10:42:29;95505.47;;;23.54;55.78
58092;BME280;43896;48.178;11.578;2023-09-18T10:44:56;95509.03;;;23.59;55.92
58092;BME280;43896;48.178;11.578;2023-09-18T10:47:21;95509.66;;;23.67;56.11
58092;BME280;43896;48.178;11.578;2023-09-18T10:49:47;95508.09;;;23.71;56.15
58092;BME280;43896;48.178;11.578;2023-09-18T10:52:15;95503.91;;;23.80;55.65
58092;BME280;43896;48.178;11.578;2023-09-18T10:54:40;95510.84;;;23.76;55.60
58092;BME280;43896;48.178;11.578;2023-09-18T10:57:05;95499.78;;;23.72;54.78
58092;BME280;43896;48.178;11.578;2023-09-18T10:59:31;95500.72;;;23.61;55.68
58092;BME280;43896;48.178;11.578;2023-09-18T11:01:56;95495.56;;;23.37;56.07
58092;BME280;43896;48.178;11.578;2023-09-18T11:04:22;95499.94;;;23.61;55.10
58092;BME280;43896;48.178;11.578;2023-09-18T11:09:29;95505.03;;;23.62;55.09
58092;BME280;43896;48.178;11.578;2023-09-18T11:20:01;95523.50;;;23.58;56.34
58092;BME280;43896;48.178;11.578;2023-09-18T11:22:26;95517.22;;;23.31;56.81
58092;BME280;43896;48.178;11.578;2023-09-18T11:24:52;95517.59;;;23.39;55.16
58092;BME280;43896;48.178;11.578;2023-09-18T11:27:23;95526.84;;;23.66;54.48
58092;BME280;43896;48.178;11.578;2023-09-18T11:29:50;95529.66;;;23.76;53.79
58092;BME280;43896;48.178;11.578;2023-09-18T11:32:31;95534.66;;;23.67;54.18
58092;BME280;43896;48.178;11.578;2023-09-18T11:35:08;95537.38;;;23.72;54.04
58092;BME280;43896;48.178;11.578;2023-09-18T11:37:33;95550.00;;;23.72;53.87
58092;BME280;43896;48.178;11.578;2023-09-18T11:39:59;95551.50;;;23.63;54.28
58092;BME280;43896;48.178;11.578;2023-09-18T11:42:25;95557.06;;;23.39;54.24
58092;BME280;43896;48.178;11.578;2023-09-18T11:44:53;95566.22;;;23.43;53.97
58092;BME280;43896;48.178;11.578;2023-09-18T11:47:22;95568.75;;;23.33;53.95
58092;BME280;43896;48.178;11.578;2023-09-18T11:49:52;95577.88;;;23.32;54.62
58092;BME280;43896;48.178;11.578;2023-09-18T11:52:19;95585.53;;;23.06;54.32
58092;BME280;43896;48.178;11.578;2023-09-18T11:54:45;95588.97;;;22.73;55.92
58092;BME280;43896;48.178;11.578;2023-09-18T11:57:12;95599.78;;;22.95;55.91
58092;BME280;43896;48.178;11.578;2023-09-18T11:59:39;95604.00;;;22.91;55.81
58092;BME280;43896;48.178;11.578;2023-09-18T12:02:04;95601.19;;;22.69;57.22
58092;BME280;43896;48.178;11.578;2023-09-18T12:04:31;95612.56;;;22.76;56.86
58092;BME280;43896;48.178;11.578;2023-09-18T12:06:58;95604.66;;;22.52;56.15
58092;BME280;43896;48.178;11.578;2023-09-18T12:09:26;95610.97;;;22.46;56.74
58092;BME280;43896;48.178;11.578;2023-09-18T12:11:51;95622.78;;;22.33;57.54
58092;BME280;43896;48.178;11.578;2023-09-18T12:14:19;95606.44;;;22.35;57.98
58092;BME280;43896;48.178;11.578;2023-09-18T12:16:45;95621.75;;;21.99;59.48
58092;BME280;43896;48.178;11.578;2023-09-18T12:19:15;95626.66;;;22.02;59.58
58092;BME280;43896;48.178;11.578;2023-09-18T12:21:40;95630.16;;;22.02;59.68
58092;BME280;43896;48.178;11.578;2023-09-18T12:24:06;95642.03;;;21.95;60.44
58092;BME280;43896;48.178;11.578;2023-09-18T12:26:31;95650.06;;;21.71;61.27
58092;BME280;43896;48.178;11.578;2023-09-18T12:28:56;95662.63;;;21.59;60.93
58092;BME280;43896;48.178;11.578;2023-09-18T12:31:24;95657.00;;;21.36;62.18
58092;BME280;43896;48.178;11.578;2023-09-18T12:33:50;95667.28;;;21.51;61.64
58092;BME280;43896;48.178;11.578;2023-09-18T12:36:19;95672.28;;;21.48;61.71
58092;BME280;43896;48.178;11.578;2023-09-18T12:38:54;95665.63;;;21.39;61.95
58092;BME280;43896;48.178;11.578;2023-09-18T12:41:20;95673.66;;;21.39;62.25
58092;BME280;43896;48.178;11.578;2023-09-18T12:43:45;95678.25;;;21.31;62.86
58092;BME280;43896;48.178;11.578;2023-09-18T12:46:10;95668.72;;;21.24;62.61
58092;BME280;43896;48.178;11.578;2023-09-18T12:48:37;95669.28;;;21.14;63.24
58092;BME280;43896;48.178;11.578;2023-09-18T12:51:06;95665.34;;;21.16;63.50
58092;BME280;43896;48.178;11.578;2023-09-18T12:53:31;95675.19;;;21.16;63.73
58092;BME280;43896;48.178;11.578;2023-09-18T12:58:31;95686.00;;;21.09;63.75
58092;BME280;43896;48.178;11.578;2023-09-18T13:00:57;95691.09;;;20.99;64.71
58092;BME280;43896;48.178;11.578;2023-09-18T13:03:22;95692.53;;;20.83;65.36